createdAt,value
2019-05-11T00:00:08.867Z,5.20
2019-05-11T00:01:08.969Z,5.90
2019-05-11T00:02:09.129Z,5.20
2019-05-11T00:03:09.228Z,4.90
2019-05-11T00:04:09.366Z,5.20
2019-05-11T00:05:09.431Z,5.20
2019-05-11T00:06:09.648Z,5.20
2019-05-11T00:07:09.960Z,5.10
2019-05-11T00:08:10.305Z,4.50
2019-05-11T00:09:10.308Z,5.40
2019-05-11T00:10:10.412Z,6.00
2019-05-11T00:11:10.515Z,5.90
2019-05-11T00:12:10.622Z,5.60
2019-05-11T00:13:10.966Z,4.80
2019-05-11T00:14:10.963Z,6.60
2019-05-11T00:15:11.116Z,5.20
2019-05-11T00:16:11.226Z,5.60
2019-05-11T00:17:11.318Z,5.10
2019-05-11T00:18:11.554Z,6.20
2019-05-11T00:19:11.648Z,7.30
2019-05-11T00:20:11.829Z,6.20
2019-05-11T00:21:11.926Z,7.10
2019-05-11T00:22:12.046Z,5.90
2019-05-11T00:23:12.196Z,5.90
2019-05-11T00:24:12.289Z,6.60
2019-05-11T00:25:12.416Z,5.90
2019-05-11T00:26:12.583Z,5.40
2019-05-11T00:27:12.692Z,6.90
2019-05-11T00:28:12.782Z,6.80
2019-05-11T00:29:13.017Z,5.90
2019-05-11T00:30:13.124Z,6.10
2019-05-11T00:31:13.357Z,7.40
2019-05-11T00:32:13.548Z,6.50
2019-05-11T00:33:13.797Z,7.70
2019-05-11T00:34:13.895Z,7.10
2019-05-11T00:35:14.004Z,6.40
2019-05-11T00:36:14.127Z,6.20
2019-05-11T00:37:14.273Z,8.30
2019-05-11T00:38:14.375Z,7.70
2019-05-11T00:39:14.793Z,6.50
2019-05-11T00:40:15.115Z,7.30
2019-05-11T00:41:14.752Z,8.70
2019-05-11T00:42:14.940Z,6.80
2019-05-11T00:43:15.140Z,7.40
2019-05-11T00:44:15.331Z,6.50
2019-05-11T00:45:15.584Z,7.30
2019-05-11T00:46:15.654Z,7.30
2019-05-11T00:47:15.886Z,7.70
2019-05-11T00:48:15.983Z,7.00
2019-05-11T00:49:16.188Z,7.00
2019-05-11T00:50:16.459Z,7.10
2019-05-11T00:51:16.555Z,9.10
2019-05-11T00:52:16.645Z,8.30
2019-05-11T00:53:19.198Z,8.40
2019-05-11T00:54:17.810Z,9.70
2019-05-11T00:55:17.595Z,8.00
2019-05-11T00:56:17.160Z,9.50
2019-05-11T00:57:18.672Z,7.40
2019-05-11T00:58:18.098Z,7.80
2019-05-11T00:59:21.845Z,6.90
2019-05-11T01:00:17.711Z,7.90
2019-05-11T01:01:19.005Z,9.00
2019-05-11T01:02:19.139Z,8.20
2019-05-11T01:03:19.237Z,7.90
2019-05-11T01:04:18.298Z,8.90
2019-05-11T01:05:19.593Z,7.80
2019-05-11T01:06:22.275Z,8.40
2019-05-11T01:07:22.204Z,9.70
2019-05-11T01:08:18.876Z,8.20
2019-05-11T01:09:19.004Z,7.60
2019-05-11T01:10:25.443Z,7.60
2019-05-11T01:11:19.763Z,8.40
2019-05-11T01:12:19.432Z,7.90
2019-05-11T01:13:19.629Z,7.40
2019-05-11T01:14:19.835Z,9.30
2019-05-11T01:15:20.053Z,8.40
2019-05-11T01:16:20.133Z,7.70
2019-05-11T01:17:20.422Z,8.30
2019-05-11T01:18:20.540Z,7.40
2019-05-11T01:19:20.729Z,8.30
2019-05-11T01:20:20.952Z,7.70
2019-05-11T01:21:21.054Z,7.10
2019-05-11T01:22:21.309Z,7.60
2019-05-11T01:23:21.418Z,7.60
2019-05-11T01:24:21.668Z,8.10
2019-05-11T01:25:21.744Z,7.90
2019-05-11T01:26:21.967Z,8.50
2019-05-11T01:27:22.060Z,8.10
2019-05-11T01:28:26.285Z,7.40
2019-05-11T01:29:22.415Z,8.00
2019-05-11T01:30:22.510Z,8.30
2019-05-11T01:31:22.704Z,9.20
2019-05-11T01:32:22.979Z,8.50
2019-05-11T01:33:23.088Z,8.30
2019-05-11T01:34:23.187Z,8.10
2019-05-11T01:35:23.298Z,8.20
2019-05-11T01:36:23.535Z,8.20
2019-05-11T01:37:23.630Z,7.60
2019-05-11T01:38:23.817Z,7.90
2019-05-11T01:39:24.027Z,8.00
2019-05-11T01:40:24.165Z,8.10
2019-05-11T01:41:24.269Z,8.30
2019-05-11T01:42:24.350Z,9.00
2019-05-11T01:43:24.589Z,7.00
2019-05-11T01:44:24.814Z,9.40
2019-05-11T01:45:24.911Z,9.60
2019-05-11T01:46:25.131Z,9.70
2019-05-11T01:47:27.931Z,9.30
2019-05-11T01:48:29.900Z,9.80
2019-05-11T01:49:25.520Z,8.70
2019-05-11T01:50:25.618Z,8.70
2019-05-11T01:51:25.809Z,8.70
2019-05-11T01:52:26.025Z,9.50
2019-05-11T01:53:26.145Z,10.00
2019-05-11T01:54:26.260Z,9.90
2019-05-11T01:55:26.355Z,8.20
2019-05-11T01:56:26.477Z,9.50
2019-05-11T01:57:26.618Z,9.60
2019-05-11T01:58:26.739Z,8.70
2019-05-11T01:59:26.821Z,11.60
2019-05-11T02:00:27.011Z,9.20
2019-05-11T02:01:27.207Z,9.50
2019-05-11T02:02:27.422Z,8.80
2019-05-11T02:03:27.607Z,10.40
2019-05-11T02:04:27.793Z,10.30
2019-05-11T02:05:27.984Z,10.20
2019-05-11T02:06:28.169Z,9.00
2019-05-11T02:07:28.396Z,9.00
2019-05-11T02:08:28.503Z,8.80
2019-05-11T02:09:28.574Z,8.50
2019-05-11T02:10:28.778Z,9.30
2019-05-11T02:11:29.013Z,8.80
2019-05-11T02:12:29.125Z,8.60
2019-05-11T02:13:29.233Z,9.60
2019-05-11T02:14:29.452Z,9.70
2019-05-11T02:15:29.556Z,9.90
2019-05-11T02:16:29.681Z,9.80
2019-05-11T02:17:29.888Z,8.30
2019-05-11T02:18:30.105Z,9.60
2019-05-11T02:19:30.212Z,9.40
2019-05-11T02:20:30.434Z,10.10
2019-05-11T02:21:30.635Z,9.10
2019-05-11T02:22:30.844Z,9.90
2019-05-11T02:23:31.044Z,8.50
2019-05-11T02:24:31.282Z,8.80
2019-05-11T02:25:31.420Z,11.30
2019-05-11T02:26:31.562Z,8.70
2019-05-11T02:27:31.646Z,10.10
2019-05-11T02:28:31.862Z,8.80
2019-05-11T02:29:32.118Z,9.10
2019-05-11T02:30:32.234Z,9.20
2019-05-11T02:31:32.357Z,10.30
2019-05-11T02:32:32.465Z,9.90
2019-05-11T02:33:32.559Z,9.40
2019-05-11T02:34:32.695Z,9.20
2019-05-11T02:35:32.806Z,8.50
2019-05-11T02:36:32.966Z,9.30
2019-05-11T02:37:33.069Z,9.50
2019-05-11T02:38:33.197Z,9.50
2019-05-11T02:39:33.309Z,9.00
2019-05-11T02:40:33.400Z,8.40
2019-05-11T02:41:37.064Z,8.80
2019-05-11T02:42:33.715Z,9.80
2019-05-11T02:43:33.791Z,9.00
2019-05-11T02:44:33.998Z,10.40
2019-05-11T02:45:34.241Z,8.90
2019-05-11T02:46:34.330Z,10.80
2019-05-11T02:47:34.419Z,9.90
2019-05-11T02:48:34.639Z,9.00
2019-05-11T02:49:34.762Z,9.50
2019-05-11T02:50:34.937Z,10.40
2019-05-11T02:51:35.033Z,10.10
2019-05-11T02:52:35.127Z,8.40
2019-05-11T02:53:35.238Z,10.90
2019-05-11T02:54:35.330Z,9.80
2019-05-11T02:55:35.601Z,10.30
2019-05-11T02:56:35.701Z,9.30
2019-05-11T02:57:35.792Z,10.70
2019-05-11T02:58:35.979Z,11.30
2019-05-11T02:59:36.163Z,10.70
2019-05-11T03:00:36.359Z,9.90
2019-05-11T03:01:36.546Z,10.60
2019-05-11T03:02:36.733Z,10.30
2019-05-11T03:03:36.947Z,11.80
2019-05-11T03:04:37.139Z,10.70
2019-05-11T03:05:37.303Z,10.00
2019-05-11T03:06:37.438Z,10.20
2019-05-11T03:07:37.513Z,9.90
2019-05-11T03:08:37.619Z,10.10
2019-05-11T03:09:37.803Z,10.40
2019-05-11T03:10:38.017Z,12.10
2019-05-11T03:11:54.177Z,8.70
2019-05-11T03:12:38.199Z,10.80
2019-05-11T03:13:38.912Z,11.10
2019-05-11T03:14:39.182Z,8.70
2019-05-11T03:15:40.911Z,9.20
2019-05-11T03:16:38.860Z,10.20
2019-05-11T03:17:38.964Z,9.90
2019-05-11T03:18:39.060Z,10.30
2019-05-11T03:19:39.277Z,10.20
2019-05-11T03:20:39.458Z,10.20
2019-05-11T03:21:39.639Z,9.80
2019-05-11T03:22:39.842Z,10.80
2019-05-11T03:23:40.140Z,11.20
2019-05-11T03:24:40.139Z,10.90
2019-05-11T03:25:40.269Z,11.80
2019-05-11T03:26:40.389Z,9.20
2019-05-11T03:27:40.483Z,10.40
2019-05-11T03:28:40.550Z,11.50
2019-05-11T03:29:40.754Z,9.60
2019-05-11T03:30:41.043Z,12.00
2019-05-11T03:31:41.248Z,10.00
2019-05-11T03:32:41.293Z,10.60
2019-05-11T03:33:41.483Z,10.20
2019-05-11T03:34:41.584Z,9.50
2019-05-11T03:35:41.847Z,9.00
2019-05-11T03:36:41.804Z,9.60
2019-05-11T03:37:42.022Z,10.30
2019-05-11T03:38:42.151Z,9.90
2019-05-11T03:39:42.257Z,9.50
2019-05-11T03:40:42.329Z,9.70
2019-05-11T03:41:42.541Z,9.80
2019-05-11T03:42:42.749Z,8.80
2019-05-11T03:43:42.817Z,10.60
2019-05-11T03:44:43.090Z,10.40
2019-05-11T03:45:43.185Z,10.10
2019-05-11T03:46:48.082Z,10.00
2019-05-11T03:47:43.542Z,11.10
2019-05-11T03:48:43.684Z,10.10
2019-05-11T03:49:43.792Z,10.10
2019-05-11T03:50:43.988Z,8.90
2019-05-11T03:51:44.195Z,8.90
2019-05-11T03:52:44.420Z,9.80
2019-05-11T03:53:44.521Z,9.80
2019-05-11T03:54:44.600Z,9.00
2019-05-11T03:55:44.817Z,9.40
2019-05-11T03:56:44.886Z,10.10
2019-05-11T03:57:45.073Z,9.20
2019-05-11T03:58:45.254Z,9.70
2019-05-11T03:59:45.455Z,11.40
2019-05-11T04:00:45.681Z,9.10
2019-05-11T04:01:45.750Z,10.00
2019-05-11T04:02:45.989Z,8.90
2019-05-11T04:03:46.059Z,10.40
2019-05-11T04:04:46.260Z,8.60
2019-05-11T04:05:46.471Z,9.10
2019-05-11T04:06:46.657Z,8.20
2019-05-11T04:07:46.897Z,10.40
2019-05-11T04:08:46.997Z,10.00
2019-05-11T04:09:47.094Z,10.90
2019-05-11T04:10:47.221Z,8.10
2019-05-11T04:11:47.424Z,9.60
2019-05-11T04:12:47.516Z,8.90
2019-05-11T04:13:47.679Z,9.60
2019-05-11T04:14:47.848Z,9.50
2019-05-11T04:15:48.136Z,9.30
2019-05-11T04:16:48.218Z,8.80
2019-05-11T04:17:48.410Z,8.30
2019-05-11T04:18:48.594Z,8.80
2019-05-11T04:19:48.806Z,9.60
2019-05-11T04:20:49.020Z,8.80
2019-05-11T04:21:49.222Z,8.10
2019-05-11T04:22:49.374Z,10.20
2019-05-11T04:23:49.547Z,9.50
2019-05-11T04:24:49.727Z,9.70
2019-05-11T04:25:49.912Z,8.30
2019-05-11T04:26:50.105Z,9.30
2019-05-11T04:27:50.269Z,10.50
2019-05-11T04:28:50.473Z,9.30
2019-05-11T04:29:50.652Z,9.50
2019-05-11T04:30:53.556Z,10.20
2019-05-11T04:31:50.922Z,9.90
2019-05-11T04:32:51.084Z,10.10
2019-05-11T04:33:51.279Z,10.60
2019-05-11T04:34:51.450Z,9.50
2019-05-11T04:35:51.625Z,9.80
2019-05-11T04:36:51.783Z,8.50
2019-05-11T04:37:51.973Z,8.50
2019-05-11T04:38:52.132Z,8.90
2019-05-11T04:39:52.325Z,9.80
2019-05-11T04:40:52.508Z,8.50
2019-05-11T04:41:52.685Z,8.80
2019-05-11T04:42:55.810Z,10.10
2019-05-11T04:43:53.089Z,9.10
2019-05-11T04:44:53.261Z,8.60
2019-05-11T04:45:53.439Z,10.60
2019-05-11T04:46:53.609Z,8.60
2019-05-11T04:47:53.798Z,9.00
2019-05-11T04:48:53.997Z,9.30
2019-05-11T04:49:54.181Z,9.40
2019-05-11T04:50:54.390Z,8.80
2019-05-11T04:51:54.550Z,10.00
2019-05-11T04:52:54.724Z,10.40
2019-05-11T04:53:54.913Z,10.00
2019-05-11T04:54:55.092Z,9.40
2019-05-11T04:55:55.300Z,9.80
2019-05-11T04:56:55.477Z,9.20
2019-05-11T04:57:55.673Z,9.50
2019-05-11T04:58:55.861Z,8.80
2019-05-11T04:59:56.046Z,9.10
2019-05-11T05:00:56.213Z,8.20
2019-05-11T05:01:56.406Z,9.50
2019-05-11T05:02:56.587Z,11.70
2019-05-11T05:04:12.240Z,9.10
2019-05-11T05:04:56.934Z,9.60
2019-05-11T05:05:57.109Z,9.40
2019-05-11T05:07:00.022Z,9.60
2019-05-11T05:08:09.300Z,9.90
2019-05-11T05:08:58.095Z,9.00
2019-05-11T05:09:57.805Z,9.10
2019-05-11T05:11:00.552Z,9.10
2019-05-11T05:11:58.182Z,9.90
2019-05-11T05:13:10.097Z,9.40
2019-05-11T05:14:02.038Z,9.40
2019-05-11T05:14:58.705Z,11.10
2019-05-11T05:16:00.108Z,10.10
2019-05-11T05:17:00.093Z,10.40
2019-05-11T05:17:59.866Z,9.10
2019-05-11T05:19:00.692Z,10.70
2019-05-11T05:20:00.034Z,9.40
2019-05-11T05:21:00.581Z,10.40
2019-05-11T05:22:00.655Z,10.40
2019-05-11T05:23:01.187Z,10.90
2019-05-11T05:24:01.065Z,8.60
2019-05-11T05:25:01.140Z,8.00
2019-05-11T05:26:01.242Z,10.30
2019-05-11T05:27:00.685Z,9.90
2019-05-11T05:28:00.851Z,9.30
2019-05-11T05:29:01.020Z,8.50
2019-05-11T05:30:01.192Z,9.60
2019-05-11T05:31:01.364Z,10.30
2019-05-11T05:32:01.538Z,9.60
2019-05-11T05:33:01.700Z,9.50
2019-05-11T05:34:02.015Z,10.80
2019-05-11T05:35:02.342Z,11.30
2019-05-11T05:36:02.667Z,10.60
2019-05-11T05:37:02.300Z,11.10
2019-05-11T05:38:02.687Z,9.60
2019-05-11T05:39:08.261Z,9.90
2019-05-11T05:40:02.996Z,8.70
2019-05-11T05:41:03.008Z,8.40
2019-05-11T05:42:03.184Z,9.70
2019-05-11T05:43:03.525Z,9.80
2019-05-11T05:44:03.402Z,10.80
2019-05-11T05:45:03.918Z,10.20
2019-05-11T05:46:03.731Z,8.70
2019-05-11T05:47:03.929Z,9.20
2019-05-11T05:48:04.162Z,8.60
2019-05-11T05:49:04.303Z,10.20
2019-05-11T05:50:04.526Z,10.30
2019-05-11T05:51:04.584Z,8.70
2019-05-11T05:52:04.802Z,8.10
2019-05-11T05:53:04.954Z,8.20
2019-05-11T05:54:05.107Z,9.10
2019-05-11T05:55:05.285Z,9.80
2019-05-11T05:56:05.446Z,9.40
2019-05-11T05:57:06.238Z,9.00
2019-05-11T05:58:07.384Z,9.50
2019-05-11T05:59:05.915Z,9.30
2019-05-11T06:00:06.138Z,9.10
2019-05-11T06:01:10.093Z,10.30
2019-05-11T06:02:06.421Z,10.40
2019-05-11T06:03:06.578Z,8.70
2019-05-11T06:04:06.747Z,9.80
2019-05-11T06:05:06.967Z,10.40
2019-05-11T06:06:07.087Z,10.00
2019-05-11T06:07:10.180Z,9.60
2019-05-11T06:08:07.503Z,9.80
2019-05-11T06:09:07.710Z,9.00
2019-05-11T06:10:07.895Z,9.80
2019-05-11T06:11:08.077Z,8.70
2019-05-11T06:12:08.288Z,9.00
2019-05-11T06:13:08.460Z,9.30
2019-05-11T06:14:08.620Z,8.20
2019-05-11T06:15:08.780Z,7.90
2019-05-11T06:16:08.951Z,7.60
2019-05-11T06:17:09.125Z,9.40
2019-05-11T06:18:09.309Z,8.00
2019-05-11T06:19:09.491Z,9.40
2019-05-11T06:20:09.854Z,8.20
2019-05-11T06:21:09.862Z,8.30
2019-05-11T06:22:10.065Z,8.70
2019-05-11T06:23:10.260Z,9.30
2019-05-11T06:24:10.446Z,8.10
2019-05-11T06:25:10.635Z,9.30
2019-05-11T06:26:10.796Z,7.60
2019-05-11T06:27:10.985Z,8.70
2019-05-11T06:28:11.156Z,8.00
2019-05-11T06:29:11.325Z,8.70
2019-05-11T06:30:11.489Z,8.60
2019-05-11T06:31:11.693Z,7.60
2019-05-11T06:32:11.864Z,7.80
2019-05-11T06:33:12.053Z,8.70
2019-05-11T06:34:12.263Z,7.30
2019-05-11T06:35:12.451Z,8.30
2019-05-11T06:36:12.623Z,8.70
2019-05-11T06:37:12.800Z,7.20
2019-05-11T06:38:13.008Z,8.30
2019-05-11T06:39:13.223Z,7.90
2019-05-11T06:40:13.389Z,8.70
2019-05-11T06:41:13.566Z,7.40
2019-05-11T06:42:13.730Z,9.30
2019-05-11T06:43:13.957Z,7.20
2019-05-11T06:44:14.135Z,8.10
2019-05-11T06:45:14.319Z,7.00
2019-05-11T06:46:14.504Z,6.70
2019-05-11T06:47:14.655Z,8.40
2019-05-11T06:48:14.836Z,6.20
2019-05-11T06:49:15.013Z,8.10
2019-05-11T06:50:15.196Z,7.50
2019-05-11T06:51:15.448Z,7.10
2019-05-11T06:52:15.588Z,7.80
2019-05-11T06:53:15.765Z,7.10
2019-05-11T06:54:15.944Z,7.60
2019-05-11T06:55:16.181Z,6.40
2019-05-11T06:56:16.387Z,7.80
2019-05-11T06:57:16.456Z,8.20
2019-05-11T06:58:17.046Z,7.90
2019-05-11T06:59:16.896Z,8.30
2019-05-11T07:00:17.017Z,6.70
2019-05-11T07:01:17.203Z,6.30
2019-05-11T07:02:17.400Z,6.60
2019-05-11T07:03:17.615Z,7.20
2019-05-11T07:04:17.778Z,7.30
2019-05-11T07:05:17.952Z,6.80
2019-05-11T07:06:18.165Z,7.30
2019-05-11T07:07:18.334Z,8.90
2019-05-11T07:08:18.516Z,6.70
2019-05-11T07:09:18.712Z,6.50
2019-05-11T07:10:18.895Z,8.90
2019-05-11T07:11:19.076Z,6.70
2019-05-11T07:12:19.408Z,7.70
2019-05-11T07:13:19.445Z,7.00
2019-05-11T07:14:21.310Z,7.60
2019-05-11T07:15:19.828Z,6.40
2019-05-11T07:16:20.035Z,7.00
2019-05-11T07:17:20.180Z,6.70
2019-05-11T07:18:20.363Z,7.70
2019-05-11T07:19:20.553Z,6.50
2019-05-11T07:20:20.794Z,6.90
2019-05-11T07:21:20.943Z,8.90
2019-05-11T07:22:21.146Z,6.20
2019-05-11T07:23:21.341Z,7.50
2019-05-11T07:24:21.546Z,7.20
2019-05-11T07:25:21.708Z,7.90
2019-05-11T07:26:22.141Z,6.90
2019-05-11T07:27:22.081Z,7.10
2019-05-11T07:28:22.423Z,6.50
2019-05-11T07:29:22.599Z,7.30
2019-05-11T07:30:22.587Z,7.30
2019-05-11T07:31:23.601Z,6.20
2019-05-11T07:32:25.930Z,7.70
2019-05-11T07:33:24.444Z,7.30
2019-05-11T07:34:23.219Z,9.50
2019-05-11T07:35:23.357Z,7.50
2019-05-11T07:36:23.533Z,6.80
2019-05-11T07:37:24.398Z,6.90
2019-05-11T07:38:23.925Z,6.60
2019-05-11T07:39:24.313Z,7.10
2019-05-11T07:40:24.407Z,6.00
2019-05-11T07:41:24.764Z,6.20
2019-05-11T07:42:24.963Z,6.50
2019-05-11T07:43:24.864Z,5.90
2019-05-11T07:44:35.934Z,6.50
2019-05-11T07:45:28.150Z,5.90
2019-05-11T07:46:25.349Z,6.40
2019-05-11T07:47:27.715Z,5.60
2019-05-11T07:48:27.811Z,6.20
2019-05-11T07:49:25.875Z,6.50
2019-05-11T07:50:28.170Z,6.50
2019-05-11T07:51:28.551Z,7.50
2019-05-11T07:52:28.712Z,6.70
2019-05-11T07:53:28.092Z,6.30
2019-05-11T07:54:28.059Z,6.40
2019-05-11T07:55:29.080Z,6.70
2019-05-11T07:56:31.572Z,6.20
2019-05-11T07:57:28.897Z,6.30
2019-05-11T07:58:29.129Z,6.70
2019-05-11T07:59:29.096Z,6.70
2019-05-11T08:00:29.841Z,6.20
2019-05-11T08:01:30.891Z,6.80
2019-05-11T08:02:32.229Z,6.00
2019-05-11T08:03:30.040Z,6.30
2019-05-11T08:04:31.435Z,6.40
2019-05-11T08:05:29.527Z,6.00
2019-05-11T08:06:29.734Z,5.60
2019-05-11T08:07:30.430Z,6.50
2019-05-11T08:08:31.322Z,5.30
2019-05-11T08:09:31.020Z,6.30
2019-05-11T08:10:31.552Z,7.70
2019-05-11T08:11:31.598Z,5.60
2019-05-11T08:12:31.765Z,6.00
2019-05-11T08:13:31.768Z,5.20
2019-05-11T08:14:32.418Z,5.50
2019-05-11T08:15:33.323Z,6.10
2019-05-11T08:16:31.864Z,6.80
2019-05-11T08:17:33.432Z,5.80
2019-05-11T08:18:32.898Z,6.60
2019-05-11T08:19:32.296Z,6.30
2019-05-11T08:20:33.770Z,5.60
2019-05-11T08:21:33.371Z,6.10
2019-05-11T08:22:33.732Z,6.70
2019-05-11T08:23:33.286Z,5.60
2019-05-11T08:24:34.248Z,6.40
2019-05-11T08:25:34.291Z,7.40
2019-05-11T08:26:34.258Z,5.70
2019-05-11T08:27:33.733Z,6.10
2019-05-11T08:28:37.912Z,5.50
2019-05-11T08:29:34.333Z,5.20
2019-05-11T08:30:33.245Z,7.50
2019-05-11T08:31:33.711Z,5.70
2019-05-11T08:32:34.611Z,6.10
2019-05-11T08:33:34.211Z,6.60
2019-05-11T08:34:34.151Z,6.90
2019-05-11T08:35:34.663Z,5.30
2019-05-11T08:36:37.666Z,5.70
2019-05-11T08:37:35.716Z,6.30
2019-05-11T08:38:37.593Z,6.50
2019-05-11T08:39:35.225Z,6.40
2019-05-11T08:40:37.792Z,6.90
2019-05-11T08:41:34.921Z,6.10
2019-05-11T08:42:37.815Z,5.70
2019-05-11T08:43:35.636Z,6.30
2019-05-11T08:44:37.852Z,6.70
2019-05-11T08:45:36.320Z,6.20
2019-05-11T08:46:38.377Z,7.90
2019-05-11T08:47:37.731Z,6.30
2019-05-11T08:48:35.333Z,6.60
2019-05-11T08:49:37.904Z,6.80
2019-05-11T08:50:38.168Z,6.20
2019-05-11T08:51:38.385Z,9.00
2019-05-11T08:52:38.418Z,7.20
2019-05-11T08:53:38.560Z,6.40
2019-05-11T08:54:38.263Z,6.40
2019-05-11T08:55:38.157Z,6.40
2019-05-11T08:56:38.250Z,7.10
2019-05-11T08:57:38.708Z,7.10
2019-05-11T08:58:38.034Z,7.20
2019-05-11T08:59:38.147Z,6.90
2019-05-11T09:00:38.931Z,6.30
2019-05-11T09:01:39.295Z,6.90
2019-05-11T09:02:38.441Z,6.60
2019-05-11T09:03:38.710Z,6.40
2019-05-11T09:04:41.824Z,7.30
2019-05-11T09:05:38.600Z,6.60
2019-05-11T09:06:38.609Z,7.10
2019-05-11T09:07:38.767Z,6.40
2019-05-11T09:08:38.980Z,8.00
2019-05-11T09:09:39.159Z,7.00
2019-05-11T09:10:39.904Z,7.40
2019-05-11T09:11:39.474Z,7.60
2019-05-11T09:12:39.647Z,6.70
2019-05-11T09:13:39.816Z,7.50
2019-05-11T09:14:40.087Z,7.40
2019-05-11T09:15:40.908Z,7.30
2019-05-11T09:16:40.314Z,7.60
2019-05-11T09:17:40.488Z,7.50
2019-05-11T09:18:40.685Z,7.40
2019-05-11T09:19:40.912Z,7.70
2019-05-11T09:20:41.048Z,6.70
2019-05-11T09:21:41.086Z,7.20
2019-05-11T09:22:41.264Z,8.20
2019-05-11T09:23:41.435Z,8.00
2019-05-11T09:24:41.609Z,7.50
2019-05-11T09:25:41.847Z,7.60
2019-05-11T09:26:41.984Z,6.60
2019-05-11T09:27:43.513Z,8.10
2019-05-11T09:28:42.337Z,8.00
2019-05-11T09:29:42.510Z,7.20
2019-05-11T09:30:42.703Z,7.60
2019-05-11T09:31:42.871Z,6.80
2019-05-11T09:32:43.047Z,6.30
2019-05-11T09:33:43.843Z,6.60
2019-05-11T09:34:43.382Z,7.50
2019-05-11T09:35:49.836Z,6.90
2019-05-11T09:36:43.766Z,7.20
2019-05-11T09:37:43.914Z,6.90
2019-05-11T09:38:44.442Z,7.20
2019-05-11T09:39:44.472Z,7.70
2019-05-11T09:40:44.432Z,6.80
2019-05-11T09:41:44.641Z,8.00
2019-05-11T09:42:44.792Z,8.20
2019-05-11T09:43:44.963Z,7.00
2019-05-11T09:44:45.146Z,8.80
2019-05-11T09:45:48.664Z,6.50
2019-05-11T09:46:47.654Z,7.90
2019-05-11T09:47:47.561Z,8.40
2019-05-11T09:48:48.163Z,8.40
2019-05-11T09:49:50.081Z,7.50
2019-05-11T09:50:48.093Z,7.90
2019-05-11T09:51:48.236Z,7.20
2019-05-11T09:52:48.731Z,7.60
2019-05-11T09:53:48.220Z,8.50
2019-05-11T09:54:48.752Z,7.90
2019-05-11T09:55:48.158Z,8.10
2019-05-11T09:56:48.605Z,7.10
2019-05-11T09:57:48.667Z,8.10
2019-05-11T09:58:48.135Z,8.10
2019-05-11T09:59:47.967Z,7.70
2019-05-11T10:00:48.201Z,6.90
2019-05-11T10:01:48.463Z,7.90
2019-05-11T10:02:48.904Z,7.50
2019-05-11T10:03:48.606Z,8.00
2019-05-11T10:04:48.765Z,7.90
2019-05-11T10:05:48.934Z,7.50
2019-05-11T10:06:49.137Z,9.60
2019-05-11T10:07:49.310Z,8.00
2019-05-11T10:08:49.464Z,8.50
2019-05-11T10:09:49.647Z,8.80
2019-05-11T10:10:49.846Z,9.50
2019-05-11T10:11:50.043Z,7.00
2019-05-11T10:12:52.823Z,6.70
2019-05-11T10:13:50.406Z,7.40
2019-05-11T10:14:50.633Z,7.90
2019-05-11T10:16:03.485Z,7.60
2019-05-11T10:16:50.958Z,6.50
2019-05-11T10:17:51.133Z,8.50
2019-05-11T10:18:51.324Z,7.10
2019-05-11T10:19:51.533Z,6.80
2019-05-11T10:20:51.605Z,6.40
2019-05-11T10:21:51.807Z,7.70
2019-05-11T10:22:51.987Z,6.10
2019-05-11T10:23:52.181Z,5.00
2019-05-11T10:24:52.369Z,6.80
2019-05-11T10:25:52.556Z,6.30
2019-05-11T10:26:52.748Z,7.40
2019-05-11T10:27:52.941Z,5.80
2019-05-11T10:28:53.115Z,6.10
2019-05-11T10:29:53.287Z,6.20
2019-05-11T10:30:53.483Z,5.70
2019-05-11T10:31:53.678Z,6.20
2019-05-11T10:32:53.875Z,6.70
2019-05-11T10:33:54.066Z,5.60
2019-05-11T10:34:54.228Z,6.90
2019-05-11T10:35:54.398Z,7.00
2019-05-11T10:36:54.603Z,6.10
2019-05-11T10:37:54.789Z,7.40
2019-05-11T10:38:54.962Z,5.60
2019-05-11T10:39:55.150Z,5.80
2019-05-11T10:40:55.322Z,5.40
2019-05-11T10:41:55.513Z,5.90
2019-05-11T10:42:55.712Z,6.90
2019-05-11T10:43:57.784Z,6.10
2019-05-11T10:44:58.159Z,6.90
2019-05-11T10:45:58.621Z,6.40
2019-05-11T10:46:58.704Z,5.50
2019-05-11T10:48:00.653Z,7.10
2019-05-11T10:48:58.729Z,6.00
2019-05-11T10:49:57.870Z,5.00
2019-05-11T10:50:57.701Z,5.70
2019-05-11T10:51:58.632Z,5.50
2019-05-11T10:52:59.065Z,5.70
2019-05-11T10:53:57.879Z,5.00
2019-05-11T10:54:58.599Z,6.10
2019-05-11T10:55:58.308Z,5.50
2019-05-11T10:56:58.253Z,5.60
2019-05-11T10:57:58.445Z,5.70
2019-05-11T10:58:58.763Z,6.50
2019-05-11T10:59:58.830Z,6.10
2019-05-11T11:00:58.995Z,5.90
2019-05-11T11:01:59.199Z,6.90
2019-05-11T11:02:59.365Z,6.40
2019-05-11T11:03:59.547Z,6.20
2019-05-11T11:04:59.739Z,4.90
2019-05-11T11:05:59.924Z,4.90
2019-05-11T11:07:00.123Z,4.40
2019-05-11T11:08:00.330Z,5.00
2019-05-11T11:09:00.509Z,5.60
2019-05-11T11:10:00.682Z,4.90
2019-05-11T11:11:00.861Z,4.80
2019-05-11T11:12:01.045Z,4.40
2019-05-11T11:13:01.233Z,4.50
2019-05-11T11:14:01.402Z,5.00
2019-05-11T11:15:01.599Z,4.60
2019-05-11T11:16:02.163Z,5.40
2019-05-11T11:17:03.018Z,5.00
2019-05-11T11:18:02.033Z,4.00
2019-05-11T11:19:02.197Z,5.00
2019-05-11T11:20:02.372Z,5.60
2019-05-11T11:21:02.548Z,6.70
2019-05-11T11:22:29.378Z,5.60
2019-05-11T11:23:03.159Z,5.00
2019-05-11T11:24:03.733Z,4.70
2019-05-11T11:25:03.507Z,6.20
2019-05-11T11:26:03.948Z,5.60
2019-05-11T11:27:03.818Z,5.70
2019-05-11T11:28:04.061Z,6.20
2019-05-11T11:29:04.084Z,7.80
2019-05-11T11:30:04.260Z,5.60
2019-05-11T11:31:04.555Z,5.80
2019-05-11T11:32:04.548Z,5.80
2019-05-11T11:33:04.811Z,7.10
2019-05-11T11:34:04.779Z,7.20
2019-05-11T11:35:04.967Z,5.40
2019-05-11T11:36:05.132Z,5.70
2019-05-11T11:37:05.320Z,6.60
2019-05-11T11:38:05.495Z,6.10
2019-05-11T11:39:05.684Z,6.00
2019-05-11T11:40:08.202Z,5.30
2019-05-11T11:41:07.671Z,5.30
2019-05-11T11:42:08.249Z,5.70
2019-05-11T11:43:08.484Z,4.70
2019-05-11T11:44:07.887Z,5.00
2019-05-11T11:45:08.035Z,6.70
2019-05-11T11:46:08.378Z,5.90
2019-05-11T11:47:08.720Z,6.00
2019-05-11T11:48:08.633Z,4.80
2019-05-11T11:49:08.289Z,5.80
2019-05-11T11:50:09.079Z,4.40
2019-05-11T11:51:08.180Z,4.70
2019-05-11T11:52:08.287Z,5.20
2019-05-11T11:53:08.646Z,4.30
2019-05-11T11:54:08.772Z,3.40
2019-05-11T11:55:09.149Z,4.10
2019-05-11T11:56:08.707Z,3.60
2019-05-11T11:57:08.887Z,4.50
2019-05-11T11:58:09.053Z,4.30
2019-05-11T11:59:09.279Z,3.60
2019-05-11T12:00:09.454Z,3.90
2019-05-11T12:01:09.597Z,3.50
2019-05-11T12:02:09.820Z,3.60
2019-05-11T12:03:09.968Z,3.70
2019-05-11T12:04:11.664Z,3.20
2019-05-11T12:05:10.270Z,3.70
2019-05-11T12:06:10.472Z,2.90
2019-05-11T12:07:10.651Z,3.50
2019-05-11T12:08:10.835Z,3.50
2019-05-11T12:09:11.022Z,4.40
2019-05-11T12:10:11.189Z,3.70
2019-05-11T12:11:11.352Z,4.80
2019-05-11T12:12:11.595Z,3.70
2019-05-11T12:13:11.748Z,5.00
2019-05-11T12:14:11.919Z,3.90
2019-05-11T12:15:12.120Z,3.50
2019-05-11T12:16:12.288Z,3.50
2019-05-11T12:17:12.473Z,4.90
2019-05-11T12:18:12.873Z,4.70
2019-05-11T12:19:12.775Z,4.40
2019-05-11T12:20:12.944Z,3.30
2019-05-11T12:21:13.138Z,4.20
2019-05-11T12:22:13.284Z,4.10
2019-05-11T12:23:13.482Z,3.90
2019-05-11T12:24:13.654Z,3.80
2019-05-11T12:25:13.865Z,3.00
2019-05-11T12:26:14.044Z,3.70
2019-05-11T12:27:14.221Z,3.80
2019-05-11T12:28:14.392Z,2.60
2019-05-11T12:29:14.593Z,2.90
2019-05-11T12:30:14.789Z,4.10
2019-05-11T12:31:14.999Z,2.70
2019-05-11T12:32:15.167Z,4.60
2019-05-11T12:33:15.339Z,4.20
2019-05-11T12:34:17.745Z,4.20
2019-05-11T12:35:17.771Z,3.90
2019-05-11T12:36:18.462Z,2.60
2019-05-11T12:37:17.891Z,2.60
2019-05-11T12:38:18.347Z,2.50
2019-05-11T12:39:18.945Z,3.30
2019-05-11T12:40:17.962Z,3.40
2019-05-11T12:41:19.095Z,2.40
2019-05-11T12:42:17.925Z,2.80
2019-05-11T12:43:18.578Z,1.80
2019-05-11T12:44:18.836Z,1.80
2019-05-11T12:45:18.199Z,2.20
2019-05-11T12:46:18.978Z,3.30
2019-05-11T12:47:24.269Z,3.00
2019-05-11T12:48:18.299Z,2.40
2019-05-11T12:49:18.734Z,2.40
2019-05-11T12:50:18.799Z,2.00
2019-05-11T12:51:18.965Z,3.70
2019-05-11T12:52:18.867Z,2.10
2019-05-11T12:53:19.563Z,3.00
2019-05-11T12:54:19.215Z,1.60
2019-05-11T12:55:19.412Z,2.00
2019-05-11T12:56:19.603Z,2.80
2019-05-11T12:57:19.766Z,2.10
2019-05-11T12:58:20.041Z,2.20
2019-05-11T12:59:20.141Z,1.90
2019-05-11T13:00:20.207Z,2.40
2019-05-11T13:01:20.395Z,1.50
2019-05-11T13:02:20.543Z,1.60
2019-05-11T13:03:20.722Z,1.60
2019-05-11T13:04:20.901Z,2.60
2019-05-11T13:05:21.099Z,1.80
2019-05-11T13:06:21.291Z,2.20
2019-05-11T13:07:21.500Z,1.70
2019-05-11T13:08:21.669Z,2.00
2019-05-11T13:09:21.897Z,1.60
2019-05-11T13:10:21.981Z,1.60
2019-05-11T13:11:22.183Z,1.80
2019-05-11T13:12:22.417Z,1.60
2019-05-11T13:13:22.486Z,2.20
2019-05-11T13:14:22.673Z,2.00
2019-05-11T13:15:22.854Z,2.20
2019-05-11T13:16:23.070Z,1.60
2019-05-11T13:17:36.516Z,2.40